»·PEaware :: N6065L KPHX-KFLG

N6065L :: KPHX-KFLG

FLIGHT INFORMATION

Flight Status: Arrived
Operator: Privately registered:
United States
More flights under this callsign
Pilot: Jone M. (10385)
Aircraft: CESSNA 172 SKYHAWK
(C172)
More flights by this aircraft type
Origin: KPHX Phoenix Sky Harbor Intl
United States
Destination: KFLG Flagstaff Pulliam
United States
More flights between these airports :: More routes between these airports
Route: +FFN
File this flight plan on PilotEdge
Remarks:
Altitude:
(Current/Filed)
11,500ft
Speed:
(Current/Filed)
110kts
Departed: 29-Dec-18 02:55 PM
Arrived: 29-Dec-18 03:57 PM
Distance/Time
Traveled:
103nm/1:02
Distance/Time
To Go:
Arrived

Flight Plot

Page will automatically refresh every two minutes.

Flight plan parsing failed; only flown route is shown


Map Options




Map Legend


Flown Route
Filed Route
Departure Airport
Arrival Airport
Navaid (VOR, NDB)
Fix

Horizontal Profiles

Position Reports

Time Latitude Longitude Heading Altitude Ground
Speed
29-Dec-18 14:46 33.425961 -112.022653 1 1113ft 0kts
29-Dec-18 14:46 33.425973 -112.022653 1 1113ft 0kts
29-Dec-18 14:47 33.425973 -112.022653 1 1113ft 0kts
29-Dec-18 14:49 33.425973 -112.022653 1 1113ft 0kts
29-Dec-18 14:49 33.426433 -112.022724 346 1113ft 10kts
29-Dec-18 14:51 33.426834 -112.022880 333 1113ft 0kts
29-Dec-18 14:51 33.427421 -112.024211 338 1113ft 13kts
29-Dec-18 14:52 33.427910 -112.026876 342 1109ft 0kts
29-Dec-18 14:53 33.430054 -112.026970 356 1109ft 14kts
29-Dec-18 14:54 33.431081 -112.021089 89 1113ft 69kts
29-Dec-18 14:55 33.431867 -111.991578 66 1771ft 92kts
29-Dec-18 14:56 33.451525 -111.974157 359 2419ft 104kts
29-Dec-18 14:57 33.476988 -111.980830 8 3401ft 80kts
29-Dec-18 14:58 33.501667 -111.975801 13 3922ft 104kts
29-Dec-18 14:59 33.532285 -111.969842 12 4428ft 116kts
29-Dec-18 15:00 33.564797 -111.963794 13 4981ft 114kts
29-Dec-18 15:01 33.592430 -111.958706 10 5771ft 88kts
29-Dec-18 15:02 33.615485 -111.954494 11 6334ft 89kts
29-Dec-18 15:03 33.640942 -111.949782 11 6737ft 95kts
29-Dec-18 15:04 33.667670 -111.944843 11 7139ft 97kts
29-Dec-18 15:05 33.694230 -111.939953 11 7534ft 96kts
29-Dec-18 15:06 33.720319 -111.935151 12 7930ft 92kts
29-Dec-18 15:07 33.745200 -111.930568 12 8325ft 88kts
29-Dec-18 15:08 33.769116 -111.926164 13 8720ft 85kts
29-Dec-18 15:09 33.792533 -111.921845 13 9116ft 84kts
29-Dec-18 15:10 33.815567 -111.917597 13 9511ft 85kts
29-Dec-18 15:11 33.839617 -111.913166 14 9905ft 89kts
29-Dec-18 15:12 33.864227 -111.908626 14 10299ft 89kts
29-Dec-18 15:13 33.888651 -111.904113 14 10689ft 89kts
29-Dec-18 15:14 33.913306 -111.899539 14 10982ft 98kts
29-Dec-18 15:15 33.944297 -111.893705 13 10678ft 120kts
29-Dec-18 15:16 33.977567 -111.887546 13 10421ft 116kts
29-Dec-18 15:17 34.008154 -111.881875 13 10382ft 107kts
29-Dec-18 15:18 34.037469 -111.876416 13 10351ft 106kts
29-Dec-18 15:19 34.067069 -111.870865 12 10165ft 114kts
29-Dec-18 15:20 34.100142 -111.864718 12 9654ft 122kts
29-Dec-18 15:21 34.133881 -111.858452 12 9159ft 123kts
29-Dec-18 15:22 34.167839 -111.852121 12 8661ft 123kts
29-Dec-18 15:23 34.199735 -111.846230 12 8689ft 102kts
29-Dec-18 15:24 34.225294 -111.841518 14 9141ft 87kts
29-Dec-18 15:25 34.248843 -111.837124 15 9492ft 89kts
29-Dec-18 15:26 34.276438 -111.831889 14 9487ft 106kts
29-Dec-18 15:27 34.306023 -111.826388 13 9491ft 106kts
29-Dec-18 15:28 34.335956 -111.820988 14 9496ft 106kts
29-Dec-18 15:29 34.365984 -111.815414 14 9500ft 107kts
29-Dec-18 15:30 34.396414 -111.809740 14 9504ft 108kts
29-Dec-18 15:31 34.427063 -111.803998 15 9505ft 109kts
29-Dec-18 15:32 34.457637 -111.798056 14 9505ft 109kts
29-Dec-18 15:33 34.488160 -111.792272 15 9505ft 108kts
29-Dec-18 15:34 34.518721 -111.786517 15 9506ft 108kts
29-Dec-18 15:35 34.549120 -111.780790 15 9507ft 109kts
29-Dec-18 15:36 34.579807 -111.775009 15 9508ft 109kts
29-Dec-18 15:37 34.610317 -111.769266 14 9508ft 109kts
29-Dec-18 15:38 34.640998 -111.763492 15 9508ft 109kts
29-Dec-18 15:39 34.671628 -111.757852 14 9508ft 109kts
29-Dec-18 15:40 34.702157 -111.752242 14 9508ft 109kts
29-Dec-18 15:41 34.732772 -111.746463 15 9507ft 109kts
29-Dec-18 15:42 34.763297 -111.740692 15 9507ft 109kts
29-Dec-18 15:43 34.793998 -111.734875 15 9507ft 109kts
29-Dec-18 15:44 34.824732 -111.729057 15 9507ft 109kts
29-Dec-18 15:45 34.855463 -111.723230 14 9507ft 109kts
29-Dec-18 15:46 34.886043 -111.717433 15 9507ft 108kts
29-Dec-18 15:47 34.916656 -111.711609 14 9502ft 108kts
29-Dec-18 15:48 34.946882 -111.705870 14 9497ft 107kts
29-Dec-18 15:49 34.977003 -111.700139 14 9491ft 106kts
29-Dec-18 15:50 35.007836 -111.704565 355 9433ft 113kts
29-Dec-18 15:51 35.042136 -111.707746 4 8931ft 122kts
29-Dec-18 15:52 35.075670 -111.704192 15 8456ft 116kts
29-Dec-18 15:53 35.103415 -111.701361 14 7710ft 77kts
29-Dec-18 15:54 35.117662 -111.693538 41 7460ft 50kts
29-Dec-18 15:55 35.127705 -111.682637 44 7141ft 45kts
29-Dec-18 15:56 35.134452 -111.676605 317 7015ft 7kts
29-Dec-18 15:57 35.135474 -111.676468 322 7015ft 12kts
29-Dec-18 15:58 35.136647 -111.676329 251 7015ft 0kts

Navigation Log

Ident Type
Flight plan parsing failed, navigation log unavailable